createdAt,value
2017-04-20T09:51:31.400Z,7676
2017-04-20T09:52:31.102Z,8752
2017-04-20T09:53:31.156Z,7636
2017-04-20T09:54:31.207Z,8716
2017-04-20T09:55:31.263Z,8600
2017-04-20T09:56:31.322Z,8752
2017-04-20T09:57:31.073Z,8496
2017-04-20T09:58:31.425Z,9372
2017-04-20T09:59:31.487Z,7624
2017-04-20T10:00:31.544Z,8832
2017-04-20T10:01:31.597Z,8508
2017-04-20T10:02:31.351Z,8756
2017-04-20T10:03:31.099Z,9784
2017-04-20T10:04:31.760Z,9012
2017-04-20T10:05:31.818Z,7928
2017-04-20T10:06:31.868Z,9216
2017-04-20T10:07:31.925Z,10176
2017-04-20T10:08:31.979Z,9648
2017-04-20T10:09:31.435Z,9576
2017-04-20T10:10:31.489Z,11176
2017-04-20T10:11:32.147Z,9876
2017-04-20T10:12:32.335Z,6856
2017-04-20T10:13:32.263Z,8144
2017-04-20T10:14:32.020Z,9444
2017-04-20T10:15:32.371Z,7764
2017-04-20T10:16:32.435Z,9824
2017-04-20T10:17:32.179Z,6468
2017-04-20T10:18:32.540Z,7592
2017-04-20T10:19:32.290Z,6792
2017-04-20T10:20:32.367Z,10700
2017-04-20T10:21:32.420Z,6840
2017-04-20T10:22:32.762Z,7768
2017-04-20T10:23:32.814Z,8892
2017-04-20T10:24:32.869Z,9032
2017-04-20T10:25:32.930Z,11552
2017-04-20T10:26:32.682Z,10892
2017-04-20T10:27:32.736Z,9472
2017-04-20T10:28:33.095Z,9528
2017-04-20T10:29:33.147Z,7412
2017-04-20T10:30:33.207Z,6388
2017-04-20T10:31:32.960Z,5784
2017-04-20T10:32:33.022Z,5196
2017-04-20T10:33:33.369Z,5680
2017-04-20T10:34:33.427Z,5088
2017-04-20T10:35:33.480Z,5052
2017-04-20T10:36:33.239Z,5740
2017-04-20T10:37:33.360Z,5828
2017-04-20T10:38:33.649Z,7052
2017-04-20T10:39:33.401Z,5652
2017-04-20T10:40:33.455Z,5272
2017-04-20T10:41:33.514Z,6092
2017-04-20T10:42:33.567Z,6036
2017-04-20T10:43:33.624Z,6852
2017-04-20T10:44:33.678Z,4612
2017-04-20T10:45:34.039Z,5844
2017-04-20T10:46:33.490Z,6504
2017-04-20T10:47:33.845Z,4556
2017-04-20T10:48:34.201Z,4916
2017-04-20T10:49:34.261Z,9372
2017-04-20T10:50:34.011Z,8216
2017-04-20T10:51:34.367Z,7732
2017-04-20T10:52:34.121Z,8356
2017-04-20T10:53:34.175Z,7080
2017-04-20T10:54:34.231Z,9004
2017-04-20T10:55:34.590Z,9472
2017-04-20T10:56:34.344Z,5476
2017-04-20T10:57:34.397Z,5924
2017-04-20T10:58:34.454Z,6380
2017-04-20T10:59:34.807Z,8144
2017-04-20T11:00:34.579Z,5356
2017-04-20T11:01:34.820Z,9444
2017-04-20T11:02:34.988Z,8168
2017-04-20T11:03:35.031Z,9092
2017-04-20T11:04:34.787Z,7264
2017-04-20T11:05:34.842Z,4992
2017-04-20T11:06:35.194Z,5184
2017-04-20T11:07:35.258Z,5196
2017-04-20T11:08:35.004Z,8800
2017-04-20T11:09:35.360Z,5960
2017-04-20T11:10:35.418Z,4756
2017-04-20T11:11:35.170Z,5244
2017-04-20T11:12:35.530Z,6380
2017-04-20T11:13:35.585Z,4628
2017-04-20T11:14:35.338Z,4656
2017-04-20T11:15:35.693Z,7376
2017-04-20T11:16:35.751Z,7128
2017-04-20T11:17:35.202Z,4892
2017-04-20T11:18:35.557Z,4520
2017-04-20T11:19:35.350Z,7396
2017-04-20T11:20:35.670Z,7316
2017-04-20T11:21:35.730Z,8132
2017-04-20T11:22:35.779Z,5884
2017-04-20T11:23:35.834Z,4604
2017-04-20T11:24:35.588Z,8376
2017-04-20T11:25:36.248Z,5744
2017-04-20T11:26:36.003Z,5400
2017-04-20T11:27:36.363Z,17352
2017-04-20T11:28:36.524Z,41920
2017-04-20T11:29:36.171Z,12964
2017-04-20T11:30:36.525Z,5736
2017-04-20T11:31:36.581Z,7996
2017-04-20T11:32:36.337Z,5964
2017-04-20T11:33:36.390Z,6740
2017-04-20T11:34:36.445Z,6232
2017-04-20T11:35:36.496Z,5396
2017-04-20T11:36:37.085Z,6980
2017-04-20T11:37:36.610Z,7912
2017-04-20T11:38:36.964Z,5008
2017-04-20T11:39:37.029Z,8036
2017-04-20T11:40:36.775Z,6092
2017-04-20T11:41:37.133Z,6192
2017-04-20T11:42:36.885Z,8488
2017-04-20T11:43:36.938Z,8836
2017-04-20T11:44:37.294Z,7432
2017-04-20T11:45:37.356Z,5780
2017-04-20T11:46:37.108Z,6616
2017-04-20T11:47:37.162Z,6968
2017-04-20T11:48:37.522Z,7124
2017-04-20T11:49:37.276Z,7344
2017-04-20T11:50:37.334Z,6804
2017-04-20T11:51:37.683Z,7312
2017-04-20T11:52:37.739Z,7388
2017-04-20T11:53:37.795Z,8396
2017-04-20T11:54:37.555Z,6348
2017-04-20T11:55:37.911Z,6688
2017-04-20T11:56:37.659Z,5192
2017-04-20T11:57:37.719Z,7508
2017-04-20T11:58:38.070Z,8920
2017-04-20T11:59:37.828Z,7048
2017-04-20T12:00:38.186Z,6036
2017-04-20T12:01:38.238Z,7200
2017-04-20T12:02:38.290Z,6932
2017-04-20T12:03:38.351Z,7836
2017-04-20T12:04:38.104Z,7592
2017-04-20T12:05:38.158Z,5736
2017-04-20T12:06:38.220Z,5112
2017-04-20T12:07:38.269Z,5456
2017-04-20T12:08:38.024Z,4768
2017-04-20T12:09:38.079Z,5128
2017-04-20T12:10:38.136Z,4924
2017-04-20T12:11:38.789Z,5384
2017-04-20T12:12:38.849Z,6312
2017-04-20T12:13:38.604Z,6128
2017-04-20T12:14:38.655Z,5224
2017-04-20T12:15:38.714Z,6912
2017-04-20T12:16:39.070Z,7780
2017-04-20T12:17:39.125Z,3900
2017-04-20T12:18:39.302Z,5172
2017-04-20T12:19:39.236Z,5444
2017-04-20T12:20:38.988Z,8392
2017-04-20T12:21:39.347Z,7336
2017-04-20T12:22:39.406Z,7032
2017-04-20T12:23:39.154Z,5792
2017-04-20T12:24:39.211Z,7224
2017-04-20T12:25:39.577Z,5856
2017-04-20T12:26:39.557Z,5732
2017-04-20T12:27:39.681Z,4608
2017-04-20T12:28:39.734Z,4024
2017-04-20T12:29:39.790Z,6300
2017-04-20T12:30:39.848Z,5864
2017-04-20T12:31:39.900Z,5848
2017-04-20T12:32:39.955Z,4716
2017-04-20T12:33:40.013Z,5172
2017-04-20T12:34:40.068Z,6488
2017-04-20T12:35:40.122Z,5500
2017-04-20T12:36:40.176Z,7392
2017-04-20T12:37:40.240Z,5416
2017-04-20T12:38:40.295Z,6384
2017-04-20T12:39:40.344Z,4668
2017-04-20T12:40:40.401Z,4820
2017-04-20T12:41:40.453Z,4456
2017-04-20T12:42:40.514Z,5516
2017-04-20T12:43:40.560Z,4800
2017-04-20T12:44:40.320Z,5424
2017-04-20T12:45:40.373Z,5164
2017-04-20T12:46:40.728Z,6212
2017-04-20T12:47:40.786Z,5632
2017-04-20T12:48:40.842Z,6656
2017-04-20T12:49:40.896Z,6888
2017-04-20T12:50:40.954Z,4852
2017-04-20T12:51:40.710Z,5644
2017-04-20T12:52:41.069Z,5264
2017-04-20T12:53:41.116Z,5252
2017-04-20T12:54:41.172Z,6972
2017-04-20T12:55:41.231Z,7008
2017-04-20T12:56:40.979Z,5524
2017-04-20T12:57:41.340Z,4712
2017-04-20T12:58:41.412Z,4252
2017-04-20T12:59:41.149Z,4928
2017-04-20T13:00:40.899Z,4428
2017-04-20T13:01:41.260Z,4568
2017-04-20T13:02:41.614Z,4976
2017-04-20T13:03:41.668Z,5292
2017-04-20T13:04:41.726Z,5232
2017-04-20T13:05:41.475Z,3520
2017-04-20T13:06:41.536Z,4332
2017-04-20T13:07:41.890Z,5204
2017-04-20T13:08:41.946Z,5864
2017-04-20T13:09:42.022Z,6620
2017-04-20T13:10:42.059Z,6036
2017-04-20T13:11:42.112Z,5628
2017-04-20T13:12:41.861Z,5152
2017-04-20T13:13:41.917Z,5648
2017-04-20T13:14:42.278Z,5120
2017-04-20T13:15:41.728Z,5548
2017-04-20T13:16:42.107Z,4676
2017-04-20T13:17:42.140Z,4532
2017-04-20T13:18:42.198Z,4848
2017-04-20T13:19:42.555Z,3892
2017-04-20T13:20:42.609Z,4392
2017-04-20T13:21:42.663Z,4072
2017-04-20T13:22:42.720Z,4600
2017-04-20T13:23:42.468Z,4680
2017-04-20T13:24:42.525Z,4436
2017-04-20T13:25:42.884Z,5008
2017-04-20T13:26:42.633Z,4416
2017-04-20T13:27:42.993Z,4820
2017-04-20T13:28:43.046Z,2932
2017-04-20T13:29:43.107Z,2692
2017-04-20T13:30:42.855Z,4384
2017-04-20T13:31:43.213Z,3840
2017-04-20T13:32:42.964Z,4444
2017-04-20T13:33:43.325Z,3252
2017-04-20T13:34:43.381Z,3384
2017-04-20T13:35:43.433Z,4260
2017-04-20T13:36:43.502Z,4776
2017-04-20T13:37:43.550Z,4744
2017-04-20T13:38:43.293Z,5288
2017-04-20T13:39:43.653Z,4588
2017-04-20T13:40:43.713Z,4684
2017-04-20T13:41:43.479Z,4240
2017-04-20T13:42:43.817Z,4236
2017-04-20T13:43:43.873Z,3460
2017-04-20T13:44:43.927Z,4144
2017-04-20T13:45:43.988Z,3916
2017-04-20T13:46:43.739Z,4000
2017-04-20T13:47:44.092Z,3052
2017-04-20T13:48:44.144Z,2416
2017-04-20T13:49:43.916Z,4092
2017-04-20T13:50:44.413Z,2660
2017-04-20T13:51:44.011Z,2356
2017-04-20T13:52:44.067Z,2932
2017-04-20T13:53:43.821Z,2504
2017-04-20T13:54:44.173Z,2256
2017-04-20T13:55:44.537Z,3540
2017-04-20T13:56:44.587Z,2180
2017-04-20T13:57:44.370Z,2008
2017-04-20T13:58:44.414Z,2600
2017-04-20T13:59:44.449Z,3676
2017-04-20T14:00:44.809Z,3656
2017-04-20T14:01:44.865Z,2564
2017-04-20T14:02:44.914Z,3872
2017-04-20T14:03:44.667Z,2536
2017-04-20T14:04:45.026Z,3392
2017-04-20T14:05:44.781Z,3144
2017-04-20T14:06:44.868Z,2924
2017-04-20T14:07:44.890Z,2864
2017-04-20T14:08:44.946Z,2292
2017-04-20T14:09:45.308Z,2780
2017-04-20T14:10:45.051Z,2804
2017-04-20T14:11:45.410Z,3528
2017-04-20T14:12:45.465Z,3340
2017-04-20T14:13:45.521Z,3364
2017-04-20T14:14:45.308Z,2616
2017-04-20T14:15:45.628Z,2952
2017-04-20T14:16:45.384Z,2984
2017-04-20T14:17:45.736Z,3252
2017-04-20T14:18:45.487Z,3220
2017-04-20T14:19:45.858Z,3300
2017-04-20T14:20:45.903Z,3320
2017-04-20T14:21:45.958Z,3160
2017-04-20T14:22:46.014Z,3180
2017-04-20T14:23:46.068Z,3200
2017-04-20T14:24:46.122Z,3100
2017-04-20T14:25:46.178Z,3076
2017-04-20T14:26:45.927Z,3088
2017-04-20T14:27:46.287Z,3080
2017-04-20T14:28:46.342Z,3028
2017-04-20T14:29:46.395Z,3188
2017-04-20T14:30:46.447Z,3556
2017-04-20T14:31:46.668Z,3232
2017-04-20T14:32:46.561Z,3552
2017-04-20T14:33:46.612Z,3396
2017-04-20T14:34:46.669Z,3136
2017-04-20T14:35:46.724Z,3404
2017-04-20T14:36:46.779Z,3752
2017-04-20T14:37:46.831Z,2420
2017-04-20T14:38:46.884Z,3008
2017-04-20T14:39:46.938Z,2704
2017-04-20T14:40:46.994Z,2888
2017-04-20T14:41:46.749Z,3164
2017-04-20T14:42:47.104Z,2436
2017-04-20T14:43:47.156Z,2960
2017-04-20T14:44:46.911Z,2028
2017-04-20T14:45:47.272Z,2800
2017-04-20T14:46:47.325Z,2828
2017-04-20T14:47:47.377Z,2568
2017-04-20T14:48:47.508Z,2760
2017-04-20T14:49:47.479Z,2640
2017-04-20T14:50:47.551Z,2556
2017-04-20T14:51:47.596Z,2456
2017-04-20T14:52:47.656Z,2212
2017-04-20T14:53:47.701Z,2632
2017-04-20T14:54:47.465Z,2548
2017-04-20T14:55:47.810Z,2592
2017-04-20T14:56:47.869Z,2536
2017-04-20T14:57:47.924Z,2416
2017-04-20T14:58:47.974Z,2432
2017-04-20T14:59:48.031Z,2424
2017-04-20T15:00:48.089Z,2372
2017-04-20T15:01:47.832Z,2348
2017-04-20T15:02:48.189Z,2452
2017-04-20T15:03:48.246Z,2212
2017-04-20T15:04:48.091Z,2384
2017-04-20T15:05:48.359Z,2264
2017-04-20T15:06:48.408Z,2320
2017-04-20T15:07:48.466Z,2216
2017-04-20T15:08:48.521Z,1044
2017-04-20T15:09:48.577Z,1744
2017-04-20T15:10:48.629Z,1884
2017-04-20T15:11:48.684Z,1300
2017-04-20T15:12:48.737Z,2508
2017-04-20T15:13:48.798Z,2360
2017-04-20T15:14:48.843Z,2432
2017-04-20T15:15:48.907Z,2140
2017-04-20T15:16:48.653Z,1228
2017-04-20T15:17:49.007Z,2248
2017-04-20T15:18:49.064Z,2108
2017-04-20T15:19:49.119Z,2176
2017-04-20T15:20:49.173Z,2132
2017-04-20T15:21:49.225Z,1884
2017-04-20T15:22:49.284Z,1992
2017-04-20T15:23:49.343Z,1948
2017-04-20T15:24:49.390Z,2040
2017-04-20T15:25:49.446Z,2032
2017-04-20T15:26:49.203Z,2152
2017-04-20T15:27:49.552Z,1368
2017-04-20T15:28:49.305Z,1320
2017-04-20T15:29:49.742Z,1140
2017-04-20T15:30:49.718Z,1624
2017-04-20T15:31:49.772Z,1156
2017-04-20T15:32:49.521Z,1208
2017-04-20T15:33:49.883Z,1592
2017-04-20T15:34:49.935Z,1692
2017-04-20T15:35:49.990Z,1756
2017-04-20T15:36:50.052Z,1472
2017-04-20T15:37:50.098Z,1420
2017-04-20T15:38:50.154Z,1968
2017-04-20T15:39:50.206Z,1772
2017-04-20T15:40:50.261Z,1428
2017-04-20T15:41:50.314Z,1552
2017-04-20T15:42:50.370Z,1028
2017-04-20T15:43:50.422Z,2048
2017-04-20T15:44:50.176Z,2060
2017-04-20T15:45:50.529Z,1068
2017-04-20T15:46:50.589Z,1148
2017-04-20T15:47:50.638Z,1052
2017-04-20T15:48:50.696Z,1068
2017-04-20T15:49:50.749Z,1324
2017-04-20T15:50:50.809Z,1500
2017-04-20T15:51:50.559Z,1200
2017-04-20T15:52:50.928Z,1600
2017-04-20T15:53:51.081Z,1168
2017-04-20T15:54:51.020Z,1520
2017-04-20T15:55:51.071Z,1492
2017-04-20T15:56:51.129Z,1440
2017-04-20T15:57:50.885Z,676
2017-04-20T15:58:51.236Z,1412
2017-04-20T15:59:51.292Z,784
2017-04-20T16:00:51.043Z,1500
2017-04-20T16:01:51.097Z,1112
2017-04-20T16:02:51.457Z,1276
2017-04-20T16:03:51.505Z,944
2017-04-20T16:04:51.561Z,712
2017-04-20T16:05:51.619Z,968
2017-04-20T16:06:51.671Z,1284
2017-04-20T16:07:51.721Z,1104
2017-04-20T16:08:51.804Z,1152
2017-04-20T16:09:51.829Z,1192
2017-04-20T16:10:52.059Z,1172
2017-04-20T16:11:51.936Z,1052
2017-04-20T16:12:52.000Z,852
2017-04-20T16:13:52.051Z,1104
2017-04-20T16:14:52.103Z,1160
2017-04-20T16:15:52.154Z,896
2017-04-20T16:16:51.908Z,660
2017-04-20T16:17:52.265Z,596
2017-04-20T16:18:52.822Z,596
2017-04-20T16:19:52.375Z,596
2017-04-20T16:20:52.428Z,644
2017-04-20T16:21:52.176Z,664
2017-04-20T16:22:52.531Z,724
2017-04-20T16:23:52.584Z,676
2017-04-20T16:25:07.269Z,760
2017-04-20T16:25:52.395Z,780
2017-04-20T16:26:52.748Z,564
2017-04-20T16:27:53.008Z,596
2017-04-20T16:28:52.855Z,572
2017-04-20T16:29:52.908Z,540
2017-04-20T16:30:52.662Z,544
2017-04-20T16:31:53.017Z,504
2017-04-20T16:32:53.070Z,472
2017-04-20T16:33:53.120Z,476
2017-04-20T16:34:53.199Z,508
2017-04-20T16:35:53.231Z,584
2017-04-20T16:36:52.979Z,472
2017-04-20T16:37:53.346Z,568
2017-04-20T16:38:53.388Z,532
2017-04-20T16:39:53.466Z,548
2017-04-20T16:40:53.498Z,616
2017-04-20T16:41:53.550Z,728
2017-04-20T16:42:53.707Z,664
2017-04-20T16:43:53.661Z,684
2017-04-20T16:44:53.410Z,884
2017-04-20T16:45:53.462Z,664
2017-04-20T16:46:53.817Z,548
2017-04-20T16:47:53.566Z,640
2017-04-20T16:48:53.928Z,712
2017-04-20T16:49:53.981Z,628
2017-04-20T16:50:54.031Z,604
2017-04-20T16:51:54.082Z,592
2017-04-20T16:52:54.133Z,568
2017-04-20T16:53:53.889Z,708
2017-04-20T16:54:54.246Z,652
2017-04-20T16:55:54.293Z,600
2017-04-20T16:56:54.346Z,600
2017-04-20T16:57:54.408Z,592
2017-04-20T16:58:54.456Z,500
2017-04-20T16:59:54.732Z,468
2017-04-20T17:00:54.564Z,452
2017-04-20T17:01:54.613Z,432
2017-04-20T17:02:54.667Z,412
2017-04-20T17:03:54.720Z,396
2017-04-20T17:04:54.770Z,408
2017-04-20T17:05:54.822Z,424
2017-04-20T17:06:54.875Z,428
2017-04-20T17:07:54.932Z,396
2017-04-20T17:08:54.987Z,408
2017-04-20T17:09:55.036Z,420
2017-04-20T17:10:54.788Z,412
2017-04-20T17:11:55.143Z,388
2017-04-20T17:12:55.197Z,372
2017-04-20T17:13:55.248Z,376
2017-04-20T17:14:54.999Z,376
2017-04-20T17:15:55.380Z,360
2017-04-20T17:16:55.407Z,360
2017-04-20T17:17:55.459Z,396
2017-04-20T17:18:55.511Z,504
2017-04-20T17:19:55.568Z,556
2017-04-20T17:20:55.614Z,516
2017-04-20T17:21:55.670Z,420
2017-04-20T17:22:55.720Z,372
2017-04-20T17:23:55.474Z,452
2017-04-20T17:24:55.826Z,576
2017-04-20T17:25:55.879Z,596
2017-04-20T17:26:55.933Z,536
2017-04-20T17:27:55.986Z,452
2017-04-20T17:28:55.733Z,456
2017-04-20T17:29:56.086Z,428
2017-04-20T17:30:56.144Z,420
2017-04-20T17:31:56.192Z,420
2017-04-20T17:32:56.245Z,440
2017-04-20T17:33:56.301Z,396
2017-04-20T17:34:56.349Z,364
2017-04-20T17:35:56.402Z,360
2017-04-20T17:36:56.460Z,340
2017-04-20T17:37:56.509Z,328
2017-04-20T17:38:56.561Z,332
2017-04-20T17:39:56.621Z,332
2017-04-20T17:40:56.698Z,336
2017-04-20T17:41:56.714Z,328
2017-04-20T17:42:56.766Z,304
2017-04-20T17:43:56.820Z,280
2017-04-20T17:44:56.873Z,264
2017-04-20T17:45:56.926Z,244
2017-04-20T17:46:56.975Z,224
2017-04-20T17:47:57.036Z,208
2017-04-20T17:48:57.199Z,188
2017-04-20T17:49:57.132Z,184
2017-04-20T17:50:57.188Z,180
2017-04-20T17:51:57.241Z,160
2017-04-20T17:52:57.291Z,152
2017-04-20T17:53:57.346Z,144
2017-04-20T17:54:57.606Z,132
2017-04-20T17:55:57.448Z,124
2017-04-20T17:56:57.499Z,112
2017-04-20T17:57:57.572Z,108
2017-04-20T17:59:10.981Z,104
2017-04-20T17:59:57.655Z,96
2017-04-20T18:00:57.709Z,96
2017-04-20T18:01:57.760Z,92
2017-04-20T18:02:57.811Z,84
2017-04-20T18:03:57.861Z,76
2017-04-20T18:04:57.913Z,72
2017-04-20T18:05:57.968Z,64
2017-04-20T18:06:58.018Z,56
2017-04-20T18:07:58.068Z,52
2017-04-20T18:08:58.120Z,48
2017-04-20T18:09:58.172Z,44
2017-04-20T18:10:58.233Z,40
2017-04-20T18:11:58.275Z,32
2017-04-20T18:12:58.329Z,32
2017-04-20T18:13:58.381Z,28
2017-04-20T18:14:58.431Z,28
2017-04-20T18:15:58.483Z,20
2017-04-20T18:16:58.538Z,20
2017-04-20T18:17:58.588Z,20
2017-04-20T18:18:58.638Z,12
2017-04-20T18:19:58.692Z,16
2017-04-20T18:20:58.743Z,12
2017-04-20T18:21:58.794Z,12
2017-04-20T18:22:58.846Z,8
2017-04-20T18:23:58.895Z,8
2017-04-20T18:24:58.951Z,4
2017-04-20T18:25:59.002Z,8
2017-04-20T18:26:59.052Z,4
2017-04-20T18:27:59.103Z,4
2017-04-20T18:28:59.166Z,0
2017-04-20T18:29:59.209Z,4
2017-04-20T18:31:12.967Z,4
2017-04-20T18:31:59.309Z,4
2017-04-20T18:32:59.059Z,0
2017-04-20T18:33:59.419Z,0
2017-04-20T18:34:59.679Z,0
2017-04-20T18:35:59.524Z,0
2017-04-20T18:36:59.572Z,0
2017-04-20T18:37:59.621Z,0
2017-04-20T18:38:59.667Z,0
2017-04-20T18:39:59.742Z,0
2017-04-20T18:40:59.776Z,0
2017-04-20T18:41:59.824Z,0
2017-04-20T18:42:59.873Z,0
2017-04-20T18:43:59.935Z,0
2017-04-20T18:44:59.988Z,0
2017-04-20T18:46:00.029Z,0
2017-04-20T18:47:00.084Z,0
2017-04-20T18:48:00.199Z,0
2017-04-20T18:49:00.189Z,0
2017-04-20T18:50:00.238Z,0
2017-04-20T18:51:00.287Z,0
2017-04-20T18:52:00.339Z,0
2017-04-20T18:53:00.389Z,0
2017-04-20T18:54:00.443Z,0
2017-04-20T18:55:00.495Z,0
2017-04-20T18:56:00.548Z,0
2017-04-20T18:57:00.599Z,0
2017-04-20T18:58:00.349Z,0
2017-04-20T18:59:00.901Z,0
2017-04-20T19:00:00.754Z,0
2017-04-20T19:01:00.801Z,0
2017-04-20T19:02:00.857Z,0
2017-04-20T19:03:01.119Z,0
2017-04-20T19:04:00.959Z,0
2017-04-20T19:05:01.010Z,0
2017-04-20T19:06:01.060Z,0
2017-04-20T19:07:14.501Z,0
2017-04-20T19:08:01.170Z,0
2017-04-20T19:09:01.218Z,0
2017-04-20T19:10:01.269Z,0
2017-04-20T19:11:01.320Z,0
2017-04-20T19:12:01.369Z,0
2017-04-20T19:13:01.437Z,0
2017-04-20T19:14:01.477Z,0
2017-04-20T19:15:01.526Z,0
2017-04-20T19:16:01.277Z,0
2017-04-20T19:17:01.626Z,0
2017-04-20T19:18:01.679Z,0
2017-04-20T19:19:01.731Z,0
2017-04-20T19:20:01.480Z,0
2017-04-20T19:21:01.838Z,0
2017-04-20T19:22:01.886Z,0
2017-04-20T19:23:01.940Z,0
2017-04-20T19:24:01.993Z,0
2017-04-20T19:25:02.038Z,0
2017-04-20T19:26:02.093Z,0
2017-04-20T19:27:02.141Z,0
2017-04-20T19:28:02.196Z,0
2017-04-20T19:29:02.244Z,0
2017-04-20T19:30:02.298Z,0
2017-04-20T19:31:02.347Z,0
2017-04-20T19:32:02.401Z,0
2017-04-20T19:33:02.448Z,0
2017-04-20T19:34:02.509Z,0
2017-04-20T19:35:02.556Z,0
2017-04-20T19:36:02.604Z,0
2017-04-20T19:37:02.657Z,0
2017-04-20T19:38:02.710Z,0
2017-04-20T19:39:02.756Z,0
2017-04-20T19:40:02.812Z,0
2017-04-20T19:41:02.863Z,0
2017-04-20T19:42:02.915Z,0
2017-04-20T19:43:02.963Z,0
2017-04-20T19:44:03.015Z,0
2017-04-20T19:45:03.069Z,0
2017-04-20T19:46:03.120Z,0
2017-04-20T19:47:03.167Z,0
2017-04-20T19:48:03.218Z,0
2017-04-20T19:49:03.274Z,0
2017-04-20T19:50:03.320Z,0
2017-04-20T19:51:03.377Z,0
2017-04-20T19:52:03.432Z,0
2017-04-20T19:53:03.478Z,0
2017-04-20T19:54:03.526Z,0
2017-04-20T19:55:03.584Z,0
2017-04-20T19:56:03.631Z,0
2017-04-20T19:57:03.683Z,0
2017-04-20T19:58:03.820Z,0
2017-04-20T19:59:03.791Z,0
2017-04-20T20:00:03.839Z,0
2017-04-20T20:01:03.887Z,0
2017-04-20T20:02:03.941Z,0
2017-04-20T20:03:04.001Z,0
2017-04-20T20:04:04.037Z,0
2017-04-20T20:05:04.092Z,0
2017-04-20T20:06:04.146Z,0
2017-04-20T20:07:04.233Z,0
2017-04-20T20:08:04.253Z,0
2017-04-20T20:09:04.303Z,0
2017-04-20T20:10:04.350Z,0
2017-04-20T20:11:04.401Z,0
2017-04-20T20:12:04.458Z,0
2017-04-20T20:13:04.505Z,0
2017-04-20T20:14:04.548Z,0
2017-04-20T20:15:04.610Z,0
2017-04-20T20:16:04.696Z,0
2017-04-20T20:17:04.711Z,0
2017-04-20T20:18:04.757Z,0
2017-04-20T20:19:04.811Z,0
2017-04-20T20:20:04.557Z,0
2017-04-20T20:21:04.916Z,0
2017-04-20T20:22:04.968Z,0
2017-04-20T20:23:04.714Z,0
2017-04-20T20:24:05.078Z,0
2017-04-20T20:25:05.119Z,0
2017-04-20T20:26:05.170Z,0
2017-04-20T20:27:05.218Z,0
2017-04-20T20:28:05.275Z,0
2017-04-20T20:29:05.324Z,0
2017-04-20T20:30:05.371Z,0
2017-04-20T20:31:05.444Z,0
2017-04-20T20:32:05.474Z,0
2017-04-20T20:33:05.568Z,0
2017-04-20T20:34:05.576Z,0
2017-04-20T20:35:05.630Z,0
2017-04-20T20:36:05.377Z,0
2017-04-20T20:37:05.734Z,0
2017-04-20T20:38:05.781Z,0
2017-04-20T20:39:05.828Z,0
2017-04-20T20:40:05.886Z,0
2017-04-20T20:41:05.936Z,0
2017-04-20T20:42:05.684Z,0
2017-04-20T20:43:06.035Z,0
2017-04-20T20:44:06.088Z,0
2017-04-20T20:45:06.149Z,0
2017-04-20T20:46:06.194Z,0
2017-04-20T20:47:06.241Z,0
2017-04-20T20:48:06.291Z,0
2017-04-20T20:49:06.340Z,0
2017-04-20T20:50:06.397Z,0
2017-04-20T20:51:06.448Z,0
2017-04-20T20:52:06.498Z,0
2017-04-20T20:53:06.246Z,0
2017-04-20T20:54:06.600Z,0
2017-04-20T20:55:06.651Z,0
2017-04-20T20:56:06.698Z,0
2017-04-20T20:57:06.754Z,0
2017-04-20T20:58:06.804Z,0
2017-04-20T20:59:06.851Z,0
2017-04-20T21:00:06.905Z,0
2017-04-20T21:01:06.960Z,0
2017-04-20T21:02:07.008Z,0
2017-04-20T21:03:07.058Z,0
2017-04-20T21:04:07.106Z,0
2017-04-20T21:05:07.160Z,0
2017-04-20T21:06:07.212Z,0
2017-04-20T21:07:07.258Z,0
2017-04-20T21:08:07.310Z,0
2017-04-20T21:09:07.364Z,0
2017-04-20T21:10:07.417Z,0
2017-04-20T21:11:07.475Z,0
2017-04-20T21:12:07.514Z,0
2017-04-20T21:13:07.563Z,0
2017-04-20T21:14:07.619Z,0
2017-04-20T21:15:07.869Z,0
2017-04-20T21:16:07.724Z,0
2017-04-20T21:17:07.773Z,0
2017-04-20T21:18:07.520Z,0
2017-04-20T21:19:07.570Z,0
2017-04-20T21:20:07.622Z,0
2017-04-20T21:21:07.973Z,0
2017-04-20T21:22:07.724Z,0
2017-04-20T21:23:08.074Z,0
2017-04-20T21:24:08.127Z,0
2017-04-20T21:25:07.874Z,0
2017-04-20T21:26:08.228Z,0
2017-04-20T21:27:08.278Z,0
2017-04-20T21:28:08.331Z,0
2017-04-20T21:29:08.399Z,0
2017-04-20T21:30:08.447Z,0
2017-04-20T21:31:08.476Z,0
2017-04-20T21:32:08.575Z,0
2017-04-20T21:33:08.578Z,0
2017-04-20T21:34:08.332Z,0
2017-04-20T21:35:08.686Z,0
2017-04-20T21:36:08.736Z,0
2017-04-20T21:37:08.786Z,0
2017-04-20T21:38:08.835Z,0
2017-04-20T21:39:08.886Z,0
2017-04-20T21:40:08.637Z,0
2017-04-20T21:41:08.991Z,0
2017-04-20T21:42:09.037Z,0
2017-04-20T21:43:09.091Z,0
2017-04-20T21:44:09.139Z,0
2017-04-20T21:45:09.199Z,0
2017-04-20T21:46:09.243Z,0
2017-04-20T21:47:09.295Z,0
2017-04-20T21:48:09.343Z,0
2017-04-20T21:49:09.394Z,0
2017-04-20T21:50:09.446Z,0
2017-04-20T21:51:09.493Z,0
2017-04-20T21:52:09.541Z,0
2017-04-20T21:53:09.595Z,0
2017-04-20T21:54:09.650Z,0
2017-04-20T21:55:09.702Z,0
2017-04-20T21:56:09.747Z,0
2017-04-20T21:57:09.496Z,0
2017-04-20T21:58:09.540Z,0
2017-04-20T21:59:09.901Z,0
2017-04-20T22:00:09.653Z,0
2017-04-20T22:01:10.000Z,0
2017-04-20T22:02:10.062Z,0
2017-04-20T22:03:10.101Z,0
2017-04-20T22:04:09.852Z,0
2017-04-20T22:05:10.211Z,0
2017-04-20T22:06:10.253Z,0
2017-04-20T22:07:10.422Z,0
2017-04-20T22:08:10.054Z,0
2017-04-20T22:09:10.408Z,0
2017-04-20T22:10:10.459Z,0
2017-04-20T22:11:10.711Z,0
2017-04-20T22:12:10.594Z,0
2017-04-20T22:13:10.613Z,0
2017-04-20T22:14:10.658Z,0
2017-04-20T22:15:10.984Z,0
2017-04-20T22:16:10.764Z,0
2017-04-20T22:17:10.808Z,0
2017-04-20T22:18:10.864Z,0
2017-04-20T22:19:10.914Z,0
2017-04-20T22:20:10.968Z,0
2017-04-20T22:21:11.015Z,0
2017-04-20T22:22:11.066Z,0
2017-04-20T22:23:11.117Z,0
2017-04-20T22:24:11.172Z,0
2017-04-20T22:25:11.218Z,0
2017-04-20T22:26:10.967Z,0
2017-04-20T22:27:11.318Z,0
2017-04-20T22:28:11.370Z,0
2017-04-20T22:29:11.416Z,0
2017-04-20T22:30:11.473Z,0
2017-04-20T22:31:11.519Z,0
2017-04-20T22:32:11.573Z,0
2017-04-20T22:33:11.624Z,0
2017-04-20T22:34:11.673Z,0
2017-04-20T22:35:11.724Z,0
2017-04-20T22:36:11.774Z,0
2017-04-20T22:37:11.823Z,0
2017-04-20T22:38:11.575Z,0
2017-04-20T22:39:11.926Z,0
2017-04-20T22:40:11.980Z,0
2017-04-20T22:41:12.031Z,0
2017-04-20T22:42:12.077Z,0
2017-04-20T22:43:12.129Z,0
2017-04-20T22:44:12.181Z,0
2017-04-20T22:45:12.228Z,0
2017-04-20T22:46:12.282Z,0
2017-04-20T22:47:12.338Z,0
2017-04-20T22:48:12.384Z,0
2017-04-20T22:49:12.432Z,0
2017-04-20T22:50:12.481Z,0
2017-04-20T22:51:12.531Z,0
2017-04-20T22:52:12.589Z,0
2017-04-20T22:53:12.331Z,0
2017-04-20T22:54:12.708Z,0
2017-04-20T22:55:12.436Z,0
2017-04-20T22:56:12.785Z,0
2017-04-20T22:57:12.841Z,0
2017-04-20T22:58:12.892Z,0
2017-04-20T22:59:12.937Z,0
2017-04-20T23:00:13.023Z,0
2017-04-20T23:01:13.039Z,0
2017-04-20T23:02:12.787Z,0
2017-04-20T23:03:13.142Z,0
2017-04-20T23:04:13.195Z,0
2017-04-20T23:05:13.240Z,0
2017-04-20T23:06:13.294Z,0
2017-04-20T23:07:13.046Z,0
2017-04-20T23:08:13.397Z,0
2017-04-20T23:09:13.448Z,0
2017-04-20T23:10:13.498Z,0
2017-04-20T23:11:13.547Z,0
2017-04-20T23:12:13.599Z,0
2017-04-20T23:13:13.651Z,0
2017-04-20T23:14:13.699Z,0
2017-04-20T23:15:13.844Z,0
2017-04-20T23:16:13.498Z,0
2017-04-20T23:17:13.855Z,0
2017-04-20T23:18:13.908Z,0
2017-04-20T23:19:13.962Z,0
2017-04-20T23:20:14.010Z,0
2017-04-20T23:21:14.054Z,0
2017-04-20T23:22:14.111Z,0
2017-04-20T23:23:14.155Z,0
2017-04-20T23:24:14.284Z,0
2017-04-20T23:25:13.968Z,0
2017-04-20T23:26:14.310Z,0
2017-04-20T23:27:14.364Z,0
2017-04-20T23:28:14.417Z,0
2017-04-20T23:29:14.465Z,0
2017-04-20T23:30:14.509Z,0
2017-04-20T23:31:14.562Z,0
2017-04-20T23:32:14.619Z,0
2017-04-20T23:33:14.674Z,0
2017-04-20T23:34:14.719Z,0
2017-04-20T23:35:14.768Z,0
2017-04-20T23:36:14.816Z,0
2017-04-20T23:37:14.867Z,0
2017-04-20T23:38:14.925Z,0
2017-04-20T23:39:14.969Z,0
2017-04-20T23:40:15.019Z,0
2017-04-20T23:41:15.074Z,0
2017-04-20T23:42:15.124Z,0
2017-04-20T23:43:15.179Z,0
2017-04-20T23:44:15.224Z,0
2017-04-20T23:45:15.271Z,0
2017-04-20T23:46:15.331Z,0
2017-04-20T23:47:15.377Z,0
2017-04-20T23:48:15.430Z,0